Airfield :







YOU CAN JOIN US ON...

 
LOGIN :

Register | Disclaimer

   EN    FR    IT 

 









Legend :    VFR   Marginal VFR   IFR   Intensive IFR   Very Intensive IFR
Visi :
Ceiling :
>= 8 km
>= 3000ft
5 to 8 km
1000 to 3000 ft
1500m to 5 km
500 to 1000 ft
800 to 1500m
200 to 500 ft
< 800m
< 200 ft
Symbols :   Thunderstorms  Fog  Heavy snow  Heavy precipitations  Wind > 20 kt







- Airport Elevation : 787 ft
- IATA code : RUT


KRUT - Rutland - Southern Vermont Regional

CURRENT METAR :
  • 150656Z AUTO 00000KT 8SM CLR 14/14 A3014 RMK AO2 SLP201 T01440144 $

EXPIRED METARs :
  • 150556Z AUTO 00000KT 10SM CLR 16/16 A3014 RMK AO2 SLP201 60001 T01560156 10189 20156 50001 $
  • 150456Z AUTO 25003KT 10SM BKN050 17/16 A3014 RMK AO2 SLP201 T01720156 401890122 $

TAF KRUT
Valid from the 15 at 06:00 until the 16 at 06:00 UTC


150520Z 1506/1606 24004KT P6SM FEW007 SCT025
TEMPO 1506/1510 4SM BR
FM151300 26005KT P6SM FEW100
FM152200 28006KT P6SM BKN060
FM160100 14004KT P6SM BKN050
No reported NOTAMs for that airfield.



MET'MAP, your aeronautical weather chart ! - Copyright ORBIFLY December 2007 - Disclaimer

ORBIFLY MET'MAP TEAM :

Programming & Development : Alexandra Zaïnal
Concept & Development : Baudouin d'Aumeries
Co-Development & Prog : Marc-Olivier Méhu
Technical & hardware support : Manuel Goepfert

Contact : metmap@orbifly.com




SOURCES & CREDITS :

   NOAA